IBE839 LEMD-LGAV
Flight info
| Callsign | IBE839 |
|---|---|
| Flight time | N/A |
| Altitude | 40000 |
| Route | PINAR N870 PONEN/N0468F390 N870 SEROX/N0469F400 N870 BCN/N0467F390 DCT DIPES/N0469F400 N725 OSPOK/N0466F390 DCT NOLVI DCT ORKUM/N0468F400 DCT ELSAG DCT ALG/N0467F390 DCT QUENN DCT LODPA DCT DINOB DCT ARA UY144 NEMES |
| Aircraft | A346/H-SDE2E3FGHIJ3J4J5M1RWXY/LB1D1 |
Departure
| Time | 2026-05-01 13:49 |
|---|---|
| Airport | Adolfo Suárez Madrid–Barajas Airport (LEMD) |
Arrival
| Time | N/A |
|---|---|
| Airport | Athens Eleftherios Venizelos International Airport (LGAV) |
| Time | Latitude | Longitude | Altitude | Speed | Heading |
|---|---|---|---|---|---|
| 2026-05-01 13:37 | 40.49741 | -3.56909 | 1988 ft | 0 kts | 90° |
| 2026-05-01 13:43 | 40.49741 | -3.56908 | 1988 ft | 0 kts | 90° |
| 2026-05-01 13:44 | 40.49741 | -3.56921 | 1989 ft | 4 kts | 90° |
| 2026-05-01 13:44 | 40.49753 | -3.56989 | 1991 ft | 11 kts | 128° |
| 2026-05-01 13:44 | 40.49811 | -3.57009 | 1993 ft | 6 kts | 179° |
| 2026-05-01 13:44 | 40.49823 | -3.57009 | 1992 ft | 7 kts | 179° |
| 2026-05-01 13:45 | 40.49676 | -3.57006 | 1995 ft | 28 kts | 179° |
| 2026-05-01 13:45 | 40.49479 | -3.57004 | 1995 ft | 28 kts | 180° |
| 2026-05-01 13:45 | 40.49301 | -3.57049 | 1998 ft | 26 kts | 230° |
| 2026-05-01 13:45 | 40.49283 | -3.57213 | 2002 ft | 12 kts | 217° |
| 2026-05-01 13:46 | 40.49167 | -3.57233 | 2002 ft | 24 kts | 178° |
| 2026-05-01 13:46 | 40.48998 | -3.57228 | 2000 ft | 25 kts | 179° |
| 2026-05-01 13:46 | 40.48824 | -3.57224 | 2004 ft | 24 kts | 167° |
| 2026-05-01 13:46 | 40.48769 | -3.57028 | 2001 ft | 28 kts | 89° |
| 2026-05-01 13:47 | 40.48772 | -3.56736 | 1993 ft | 34 kts | 91° |
| 2026-05-01 13:47 | 40.48765 | -3.56414 | 1983 ft | 36 kts | 90° |
| 2026-05-01 13:47 | 40.48839 | -3.56149 | 1968 ft | 31 kts | 15° |
| 2026-05-01 13:47 | 40.49059 | -3.56143 | 1965 ft | 34 kts | 360° |
| 2026-05-01 13:48 | 40.49297 | -3.56145 | 1963 ft | 34 kts | 360° |
| 2026-05-01 13:48 | 40.49416 | -3.55948 | 1961 ft | 33 kts | 95° |
| 2026-05-01 13:48 | 40.49368 | -3.55660 | 1957 ft | 33 kts | 131° |
| 2026-05-01 13:48 | 40.49097 | -3.55378 | 1950 ft | 86 kts | 142° |
| 2026-05-01 13:49 | 40.48406 | -3.54674 | 1933 ft | 163 kts | 142° |
| 2026-05-01 13:49 | 40.47411 | -3.53634 | 2388 ft | 191 kts | 144° |
| 2026-05-01 13:49 | 40.46371 | -3.52539 | 3404 ft | 194 kts | 144° |
| 2026-05-01 13:49 | 40.45264 | -3.51415 | 4124 ft | 206 kts | 144° |
| 2026-05-01 13:50 | 40.44097 | -3.50230 | 4750 ft | 217 kts | 143° |
| 2026-05-01 13:50 | 40.43045 | -3.48773 | 5583 ft | 223 kts | 128° |
| 2026-05-01 13:50 | 40.42255 | -3.46955 | 6242 ft | 236 kts | 120° |
| 2026-05-01 13:50 | 40.41517 | -3.44974 | 6924 ft | 244 kts | 118° |
| 2026-05-01 13:51 | 40.40788 | -3.42961 | 7788 ft | 244 kts | 118° |
| 2026-05-01 13:51 | 40.40053 | -3.40936 | 8644 ft | 247 kts | 118° |
| 2026-05-01 13:51 | 40.39313 | -3.38900 | 9431 ft | 252 kts | 116° |
| 2026-05-01 13:51 | 40.38919 | -3.36631 | 10185 ft | 262 kts | 89° |
| 2026-05-01 13:52 | 40.39415 | -3.34315 | 10913 ft | 269 kts | 59° |
| 2026-05-01 13:52 | 40.40726 | -3.32529 | 11490 ft | 281 kts | 29° |
| 2026-05-01 13:52 | 40.42625 | -3.31758 | 11952 ft | 293 kts | 5° |
| 2026-05-01 13:52 | 40.44682 | -3.31471 | 12674 ft | 300 kts | 4° |
| 2026-05-01 13:53 | 40.46775 | -3.31180 | 13540 ft | 303 kts | 4° |
| 2026-05-01 13:53 | 40.51006 | -3.30521 | 15088 ft | 309 kts | 5° |
| 2026-05-01 13:53 | 40.53117 | -3.30169 | 15821 ft | 311 kts | 5° |
| 2026-05-01 13:54 | 40.55278 | -3.29804 | 16603 ft | 314 kts | 5° |
| 2026-05-01 13:54 | 40.57454 | -3.29434 | 17389 ft | 316 kts | 5° |
| 2026-05-01 13:54 | 40.59646 | -3.29060 | 18161 ft | 319 kts | 5° |
| 2026-05-01 13:54 | 40.61832 | -3.28379 | 18680 ft | 333 kts | 24° |
| 2026-05-01 13:55 | 40.63694 | -3.26453 | 18952 ft | 352 kts | 52° |
| 2026-05-01 13:55 | 40.64858 | -3.23537 | 19241 ft | 369 kts | 69° |
| 2026-05-01 13:55 | 40.65715 | -3.20272 | 19541 ft | 385 kts | 71° |
| 2026-05-01 13:55 | 40.66603 | -3.16858 | 19814 ft | 401 kts | 70° |
| 2026-05-01 13:56 | 40.67585 | -3.13331 | 20071 ft | 416 kts | 69° |
| 2026-05-01 13:56 | 40.68656 | -3.09701 | 20321 ft | 431 kts | 68° |
| 2026-05-01 13:56 | 40.69779 | -3.06020 | 20607 ft | 444 kts | 67° |
| 2026-05-01 13:56 | 40.70977 | -3.02170 | 21153 ft | 450 kts | 67° |
| 2026-05-01 13:57 | 40.72165 | -2.98391 | 21800 ft | 453 kts | 67° |
| 2026-05-01 13:57 | 40.73679 | -2.93596 | 22563 ft | 458 kts | 67° |
| 2026-05-01 13:57 | 40.77004 | -2.83074 | 24099 ft | 468 kts | 67° |
| 2026-05-01 13:57 | 40.79127 | -2.74874 | 25089 ft | 475 kts | 76° |
| 2026-05-01 13:58 | 40.80741 | -2.66300 | 26075 ft | 482 kts | 76° |
| 2026-05-01 13:58 | 40.82401 | -2.57634 | 27018 ft | 490 kts | 76° |
| 2026-05-01 13:58 | 40.84136 | -2.48822 | 27941 ft | 498 kts | 75° |
| 2026-05-01 13:58 | 40.85904 | -2.39914 | 29015 ft | 501 kts | 75° |
| 2026-05-01 13:59 | 40.87641 | -2.31148 | 30424 ft | 497 kts | 75° |
| 2026-05-01 13:59 | 40.89395 | -2.22281 | 31582 ft | 494 kts | 74° |
| 2026-05-01 13:59 | 40.91122 | -2.13519 | 32799 ft | 490 kts | 74° |
| 2026-05-01 13:59 | 40.92827 | -2.04832 | 34039 ft | 486 kts | 74° |
| 2026-05-01 14:00 | 40.94522 | -1.96153 | 35022 ft | 483 kts | 74° |
| 2026-05-01 14:00 | 40.96199 | -1.87524 | 35862 ft | 483 kts | 74° |
| 2026-05-01 14:00 | 40.97871 | -1.78886 | 36638 ft | 482 kts | 74° |
| 2026-05-01 14:00 | 40.99531 | -1.70266 | 37368 ft | 482 kts | 74° |
| 2026-05-01 14:01 | 41.01189 | -1.61627 | 38052 ft | 481 kts | 74° |
| 2026-05-01 14:01 | 41.02831 | -1.53029 | 38666 ft | 481 kts | 74° |
| 2026-05-01 14:01 | 41.04473 | -1.44394 | 39054 ft | 484 kts | 74° |
| 2026-05-01 14:01 | 41.06094 | -1.35835 | 39387 ft | 486 kts | 74° |
| 2026-05-01 14:02 | 41.07742 | -1.27091 | 39710 ft | 488 kts | 75° |
| 2026-05-01 14:02 | 41.09387 | -1.18326 | 39990 ft | 490 kts | 75° |
| 2026-05-01 14:02 | 41.11034 | -1.09512 | 40169 ft | 492 kts | 75° |
| 2026-05-01 14:02 | 41.12673 | -1.00696 | 40174 ft | 492 kts | 75° |
| 2026-05-01 14:03 | 41.15940 | -0.82996 | 40172 ft | 492 kts | 75° |
| 2026-05-01 14:03 | 41.19177 | -0.65301 | 40171 ft | 492 kts | 76° |
| 2026-05-01 14:04 | 41.22379 | -0.47626 | 40172 ft | 492 kts | 76° |
| 2026-05-01 14:04 | 41.25025 | -0.32892 | 40177 ft | 492 kts | 76° |
| 2026-05-01 14:05 | 41.28715 | -0.12164 | 40187 ft | 493 kts | 76° |
| 2026-05-01 14:05 | 41.31851 | 0.05650 | 40194 ft | 493 kts | 77° |
| 2026-05-01 14:06 | 41.34111 | 0.20356 | 40195 ft | 492 kts | 83° |
| 2026-05-01 14:06 | 41.34572 | 0.29507 | 40198 ft | 491 kts | 90° |
| 2026-05-01 14:07 | 41.34462 | 0.38539 | 40200 ft | 491 kts | 92° |
| 2026-05-01 14:08 | 41.34241 | 0.52193 | 40200 ft | 490 kts | 92° |
| 2026-05-01 14:08 | 41.34102 | 0.61275 | 40202 ft | 490 kts | 92° |
| 2026-05-01 14:09 | 41.33952 | 0.70351 | 40207 ft | 490 kts | 92° |
| 2026-05-01 14:09 | 41.33795 | 0.79420 | 40213 ft | 490 kts | 92° |
| 2026-05-01 14:10 | 41.33631 | 0.88488 | 40221 ft | 490 kts | 92° |
| 2026-05-01 14:10 | 41.33460 | 0.97514 | 40229 ft | 489 kts | 92° |
| 2026-05-01 14:11 | 41.33282 | 1.06584 | 40239 ft | 489 kts | 92° |
| 2026-05-01 14:11 | 41.33031 | 1.18669 | 40244 ft | 490 kts | 92° |
| 2026-05-01 14:12 | 41.32837 | 1.27756 | 40239 ft | 490 kts | 92° |
| 2026-05-01 14:12 | 41.32635 | 1.36829 | 40239 ft | 490 kts | 92° |
| 2026-05-01 14:13 | 41.32426 | 1.45907 | 40237 ft | 490 kts | 92° |
| 2026-05-01 14:13 | 41.32210 | 1.54950 | 40233 ft | 490 kts | 92° |
| 2026-05-01 14:14 | 41.31986 | 1.64035 | 40233 ft | 491 kts | 93° |
| 2026-05-01 14:14 | 41.31754 | 1.73137 | 40242 ft | 491 kts | 93° |
| 2026-05-01 14:15 | 41.31515 | 1.82242 | 40246 ft | 491 kts | 93° |
| 2026-05-01 14:15 | 41.31268 | 1.91360 | 40253 ft | 492 kts | 93° |
| 2026-05-01 14:16 | 41.31015 | 2.00420 | 40255 ft | 492 kts | 93° |
| 2026-05-01 14:16 | 41.30604 | 2.09537 | 40254 ft | 492 kts | 97° |
| 2026-05-01 14:17 | 41.29472 | 2.18521 | 40256 ft | 493 kts | 103° |
| 2026-05-01 14:17 | 41.27984 | 2.27495 | 40252 ft | 497 kts | 104° |
| 2026-05-01 14:18 | 41.26481 | 2.36487 | 40250 ft | 497 kts | 104° |
| 2026-05-01 14:18 | 41.25233 | 2.43962 | 40243 ft | 497 kts | 104° |
| 2026-05-01 14:19 | 41.23483 | 2.54413 | 40238 ft | 496 kts | 104° |
| 2026-05-01 14:19 | 41.21977 | 2.63362 | 40240 ft | 496 kts | 104° |
| 2026-05-01 14:20 | 41.19702 | 2.76803 | 40237 ft | 495 kts | 104° |
| 2026-05-01 14:21 | 41.18186 | 2.85705 | 40234 ft | 495 kts | 104° |
| 2026-05-01 14:21 | 41.16656 | 2.94644 | 40233 ft | 495 kts | 104° |
| 2026-05-01 14:22 | 41.14347 | 3.08045 | 40232 ft | 495 kts | 104° |
| 2026-05-01 14:22 | 41.12798 | 3.16978 | 40236 ft | 496 kts | 104° |
| 2026-05-01 14:23 | 41.11251 | 3.25858 | 40234 ft | 496 kts | 104° |
| 2026-05-01 14:23 | 41.09689 | 3.34785 | 40232 ft | 496 kts | 104° |
| 2026-05-01 14:24 | 41.08119 | 3.43707 | 40234 ft | 496 kts | 104° |
| 2026-05-01 14:24 | 41.06541 | 3.52626 | 40229 ft | 496 kts | 104° |
| 2026-05-01 14:25 | 41.04968 | 3.61487 | 40232 ft | 496 kts | 104° |
| 2026-05-01 14:25 | 41.03378 | 3.70404 | 40233 ft | 496 kts | 104° |
| 2026-05-01 14:26 | 41.00988 | 3.83707 | 40233 ft | 496 kts | 105° |
| 2026-05-01 14:27 | 40.99377 | 3.92611 | 40236 ft | 496 kts | 105° |
| 2026-05-01 14:27 | 40.97762 | 4.01495 | 40234 ft | 496 kts | 105° |
| 2026-05-01 14:28 | 40.95326 | 4.14817 | 40242 ft | 495 kts | 105° |
| 2026-05-01 14:28 | 40.93704 | 4.23636 | 40237 ft | 495 kts | 105° |
| 2026-05-01 14:29 | 40.92066 | 4.32500 | 40240 ft | 495 kts | 105° |
| 2026-05-01 14:30 | 40.88769 | 4.50226 | 40246 ft | 496 kts | 105° |
| 2026-05-01 14:31 | 40.86301 | 4.63531 | 40247 ft | 496 kts | 103° |
| 2026-05-01 14:31 | 40.85135 | 4.72531 | 40249 ft | 497 kts | 98° |
| 2026-05-01 14:32 | 40.84303 | 4.81560 | 40253 ft | 497 kts | 97° |
| 2026-05-01 14:32 | 40.83468 | 4.90651 | 40250 ft | 497 kts | 97° |
| 2026-05-01 14:33 | 40.82620 | 4.99739 | 40249 ft | 497 kts | 97° |
| 2026-05-01 14:33 | 40.81761 | 5.08824 | 40255 ft | 498 kts | 97° |
| 2026-05-01 14:34 | 40.80894 | 5.17900 | 40257 ft | 498 kts | 97° |
| 2026-05-01 14:34 | 40.80019 | 5.26990 | 40255 ft | 498 kts | 97° |
| 2026-05-01 14:35 | 40.79143 | 5.36007 | 40256 ft | 498 kts | 97° |
| 2026-05-01 14:35 | 40.78253 | 5.45088 | 40257 ft | 498 kts | 97° |
| 2026-05-01 14:36 | 40.77355 | 5.54181 | 40256 ft | 498 kts | 97° |
| 2026-05-01 14:36 | 40.76451 | 5.63260 | 40260 ft | 498 kts | 97° |
| 2026-05-01 14:37 | 40.75540 | 5.72342 | 40257 ft | 498 kts | 97° |
| 2026-05-01 14:37 | 40.74622 | 5.81415 | 40257 ft | 498 kts | 97° |
| 2026-05-01 14:38 | 40.73701 | 5.90437 | 40258 ft | 498 kts | 98° |
| 2026-05-01 14:38 | 40.72767 | 5.99516 | 40257 ft | 498 kts | 98° |
| 2026-05-01 14:39 | 40.71825 | 6.08591 | 40253 ft | 498 kts | 98° |
| 2026-05-01 14:39 | 40.70876 | 6.17659 | 40254 ft | 499 kts | 98° |
| 2026-05-01 14:40 | 40.69920 | 6.26726 | 40253 ft | 499 kts | 98° |
| 2026-05-01 14:40 | 40.68956 | 6.35800 | 40254 ft | 499 kts | 98° |
| 2026-05-01 14:41 | 40.67984 | 6.44880 | 40253 ft | 499 kts | 98° |
| 2026-05-01 14:41 | 40.67011 | 6.53896 | 40251 ft | 499 kts | 98° |
| 2026-05-01 14:42 | 40.66024 | 6.62974 | 40253 ft | 499 kts | 98° |
| 2026-05-01 14:42 | 40.65029 | 6.72054 | 40253 ft | 500 kts | 98° |
| 2026-05-01 14:43 | 40.64028 | 6.81134 | 40250 ft | 500 kts | 98° |
| 2026-05-01 14:43 | 40.63026 | 6.90147 | 40249 ft | 500 kts | 98° |
| 2026-05-01 14:44 | 40.62008 | 6.99238 | 40250 ft | 500 kts | 98° |
| 2026-05-01 14:44 | 40.60470 | 7.12852 | 40245 ft | 501 kts | 98° |
| 2026-05-01 14:45 | 40.58915 | 7.26468 | 40246 ft | 501 kts | 98° |
| 2026-05-01 14:46 | 40.57868 | 7.35547 | 40240 ft | 501 kts | 98° |
| 2026-05-01 14:46 | 40.56913 | 7.49236 | 40238 ft | 499 kts | 89° |
| 2026-05-01 14:47 | 40.57215 | 7.58311 | 40232 ft | 498 kts | 82° |
| 2026-05-01 14:48 | 40.58403 | 7.71888 | 40235 ft | 497 kts | 81° |
| 2026-05-01 14:48 | 40.59580 | 7.85472 | 40229 ft | 497 kts | 82° |
| 2026-05-01 14:49 | 40.61101 | 8.03572 | 40210 ft | 497 kts | 81° |
| 2026-05-01 14:50 | 40.61953 | 8.21777 | 40197 ft | 499 kts | 90° |
| 2026-05-01 14:51 | 40.60677 | 8.35387 | 40202 ft | 502 kts | 101° |
| 2026-05-01 14:52 | 40.58134 | 8.48819 | 40205 ft | 503 kts | 103° |
| 2026-05-01 14:53 | 40.55530 | 8.62199 | 40214 ft | 504 kts | 103° |
| 2026-05-01 14:53 | 40.53786 | 8.71167 | 40223 ft | 505 kts | 103° |
| 2026-05-01 14:54 | 40.52036 | 8.80141 | 40229 ft | 506 kts | 103° |
| 2026-05-01 14:54 | 40.50276 | 8.89123 | 40233 ft | 506 kts | 103° |
| 2026-05-01 14:55 | 40.48510 | 8.98100 | 40239 ft | 507 kts | 103° |
| 2026-05-01 14:55 | 40.46736 | 9.07079 | 40244 ft | 508 kts | 103° |
| 2026-05-01 14:56 | 40.44961 | 9.16018 | 40244 ft | 508 kts | 103° |
| 2026-05-01 14:56 | 40.43167 | 9.25019 | 40245 ft | 509 kts | 103° |
| 2026-05-01 14:57 | 40.41669 | 9.32503 | 40251 ft | 509 kts | 103° |
| 2026-05-01 14:57 | 40.38949 | 9.46021 | 40254 ft | 510 kts | 103° |
| 2026-05-01 14:58 | 40.37124 | 9.55043 | 40259 ft | 511 kts | 103° |
| 2026-05-01 14:58 | 40.35280 | 9.64116 | 40261 ft | 512 kts | 103° |
| 2026-05-01 14:59 | 40.33445 | 9.73110 | 40267 ft | 513 kts | 103° |
| 2026-05-01 14:59 | 40.31587 | 9.82171 | 40267 ft | 514 kts | 103° |
| 2026-05-01 15:00 | 40.28780 | 9.95793 | 40263 ft | 515 kts | 103° |
| 2026-05-01 15:01 | 40.26896 | 10.04886 | 40263 ft | 516 kts | 103° |
| 2026-05-01 15:01 | 40.25005 | 10.13970 | 40262 ft | 517 kts | 103° |
| 2026-05-01 15:02 | 40.23114 | 10.23017 | 40259 ft | 517 kts | 103° |
| 2026-05-01 15:02 | 40.21202 | 10.32127 | 40259 ft | 518 kts | 103° |
| 2026-05-01 15:03 | 40.19281 | 10.41239 | 40252 ft | 519 kts | 103° |
| 2026-05-01 15:03 | 40.17348 | 10.50367 | 40255 ft | 520 kts | 103° |
| 2026-05-01 15:04 | 40.15710 | 10.59576 | 40251 ft | 519 kts | 98° |
| 2026-05-01 15:04 | 40.14348 | 10.68851 | 40246 ft | 519 kts | 98° |
| 2026-05-01 15:05 | 40.12994 | 10.78081 | 40241 ft | 520 kts | 98° |
| 2026-05-01 15:05 | 40.11616 | 10.87371 | 40245 ft | 520 kts | 98° |
| 2026-05-01 15:06 | 40.10225 | 10.96665 | 40247 ft | 521 kts | 98° |
| 2026-05-01 15:06 | 40.08825 | 11.05963 | 40245 ft | 520 kts | 98° |
| 2026-05-01 15:07 | 40.07415 | 11.15267 | 40241 ft | 521 kts | 98° |
| 2026-05-01 15:07 | 40.06000 | 11.24553 | 40243 ft | 521 kts | 98° |
| 2026-05-01 15:08 | 40.04576 | 11.33847 | 40240 ft | 521 kts | 98° |
| 2026-05-01 15:08 | 40.03155 | 11.43071 | 40237 ft | 521 kts | 98° |
| 2026-05-01 15:09 | 40.01715 | 11.52366 | 40236 ft | 521 kts | 98° |
| 2026-05-01 15:09 | 40.00270 | 11.61638 | 40236 ft | 521 kts | 98° |
| 2026-05-01 15:10 | 39.98817 | 11.70914 | 40236 ft | 521 kts | 98° |
| 2026-05-01 15:10 | 39.96624 | 11.84817 | 40240 ft | 521 kts | 98° |
| 2026-05-01 15:11 | 39.94421 | 11.98666 | 40235 ft | 522 kts | 98° |
| 2026-05-01 15:12 | 39.92936 | 12.07942 | 40235 ft | 522 kts | 98° |
| 2026-05-01 15:12 | 39.90689 | 12.21877 | 40232 ft | 523 kts | 99° |
| 2026-05-01 15:14 | 39.86915 | 12.45040 | 40229 ft | 524 kts | 99° |
| 2026-05-01 15:14 | 39.84619 | 12.58979 | 40229 ft | 524 kts | 99° |
| 2026-05-01 15:15 | 39.81530 | 12.77571 | 40217 ft | 525 kts | 100° |
| 2026-05-01 15:16 | 39.78408 | 12.96159 | 40214 ft | 526 kts | 100° |
| 2026-05-01 15:18 | 39.74460 | 13.19384 | 40213 ft | 527 kts | 101° |
| 2026-05-01 15:19 | 39.71257 | 13.38017 | 40212 ft | 528 kts | 101° |
| 2026-05-01 15:19 | 39.68830 | 13.52014 | 40204 ft | 529 kts | 101° |
| 2026-05-01 15:20 | 39.66382 | 13.66022 | 40201 ft | 530 kts | 101° |
| 2026-05-01 15:21 | 39.64747 | 13.75314 | 40198 ft | 530 kts | 101° |
| 2026-05-01 15:21 | 39.63094 | 13.84665 | 40190 ft | 531 kts | 101° |
| 2026-05-01 15:22 | 39.60593 | 13.98718 | 40185 ft | 532 kts | 102° |
| 2026-05-01 15:22 | 39.58913 | 14.08106 | 40187 ft | 533 kts | 102° |
| 2026-05-01 15:23 | 39.57237 | 14.17420 | 40185 ft | 534 kts | 102° |
| 2026-05-01 15:23 | 39.55541 | 14.26804 | 40180 ft | 534 kts | 102° |
| 2026-05-01 15:24 | 39.53835 | 14.36199 | 40177 ft | 535 kts | 102° |
| 2026-05-01 15:24 | 39.52117 | 14.45608 | 40174 ft | 536 kts | 102° |
| 2026-05-01 15:25 | 39.50387 | 14.55042 | 40171 ft | 537 kts | 102° |
| 2026-05-01 15:25 | 39.48649 | 14.64468 | 40168 ft | 537 kts | 102° |
| 2026-05-01 15:26 | 39.46904 | 14.73891 | 40163 ft | 538 kts | 102° |
| 2026-05-01 15:26 | 39.45148 | 14.83324 | 40158 ft | 539 kts | 102° |
| 2026-05-01 15:27 | 39.43381 | 14.92770 | 40164 ft | 539 kts | 102° |
| 2026-05-01 15:28 | 39.40726 | 15.06878 | 40153 ft | 540 kts | 102° |
| 2026-05-01 15:28 | 39.38937 | 15.16329 | 40149 ft | 540 kts | 103° |
| 2026-05-01 15:29 | 39.36236 | 15.30510 | 40147 ft | 540 kts | 103° |
| 2026-05-01 15:30 | 39.32620 | 15.49343 | 40143 ft | 541 kts | 103° |
| 2026-05-01 15:31 | 39.27116 | 15.77672 | 40134 ft | 541 kts | 103° |
| 2026-05-01 15:32 | 39.23411 | 15.96520 | 40129 ft | 541 kts | 103° |
| 2026-05-01 15:34 | 39.17810 | 16.24695 | 40126 ft | 539 kts | 104° |